HomeShort term forecast

Short term forecast

Graphical weather forecast for the next 48 hours for Montreal:

Short term forecast

This weather forecast is automatically refreshed every 3 hours.

Hourly Experimental Forecast for the next 48 hours

Overall summary: Possible light rain starting tomorrow afternoon, continuing until morning.

 Date & Hour   Temp   Feel   Baro   Hum   Speed & Bearing   Wind Gust   Precip.%   Precip.   Visibility   Cloud cover   Conditions 
 01/08/2021 - 03:00  14.4°C  14.4°C  1011.8 hPa  81%  9.5 km/h   20.4 km/h  4%  --  16.1km  46%  Partly Cloudy 
 01/08/2021 - 04:00  14.1°C  14.1°C  1011.9 hPa  82%  8.3 km/h   18.3 km/h  4%  0.01 mm/h  16.1km  51%  Partly Cloudy 
 01/08/2021 - 05:00  13.8°C  13.8°C  1011.9 hPa  82%  7.4 km/h   15.5 km/h  4%  0.01 mm/h  16.1km  54%  Partly Cloudy 
 01/08/2021 - 06:00  13.9°C  13.9°C  1012.1 hPa  82%  6.8 km/h   15.3 km/h  5%  0.02 mm/h  16.1km  76%  Mostly Cloudy 
 01/08/2021 - 07:00  14.5°C  14.5°C  1012.1 hPa  80%  6.1 km/h   14.3 km/h  6%  0.02 mm/h  16.1km  87%  Mostly Cloudy 
 01/08/2021 - 08:00  15.5°C  15.5°C  1012.1 hPa  78%  6.7 km/h   15.2 km/h  10%  0.04 mm/h  16.1km  91%  Overcast 
 01/08/2021 - 09:00  16.2°C  16.2°C  1012.1 hPa  77%  8.2 km/h   17.8 km/h  15%  0.07 mm/h  16.1km  95%  Overcast 
 01/08/2021 - 10:00  16.7°C  16.7°C  1011.9 hPa  77%  9.6 km/h   20.4 km/h  26%  0.23 mm/h  16.1km  98%  Possible Light Rain 
 01/08/2021 - 11:00  17.2°C  17.2°C  1011.7 hPa  76%  10.3 km/h   22.5 km/h  25%  0.25 mm/h  16.1km  100%  Overcast 
 01/08/2021 - 12:00  17.1°C  17.1°C  1011.4 hPa  76%  10.4 km/h   22.0 km/h  32%  0.27 mm/h  16.1km  100%  Possible Light Rain 
 01/08/2021 - 13:00  16.8°C  16.8°C  1011.2 hPa  79%  12.1 km/h   21.8 km/h  35%  0.26 mm/h  16.1km  98%  Possible Light Rain 
 01/08/2021 - 14:00  17.1°C  17.1°C  1010.9 hPa  79%  11.3 km/h   17.7 km/h  38%  0.27 mm/h  16.1km  98%  Possible Light Rain 
 01/08/2021 - 15:00  17.1°C  17.1°C  1010.6 hPa  79%  10.8 km/h   15.5 km/h  31%  0.23 mm/h  16.1km  98%  Possible Light Rain 
 01/08/2021 - 16:00  19.1°C  19.1°C  1010.0 hPa  73%  10.9 km/h   17.8 km/h  20%  0.28 mm/h  16.1km  98%  Overcast 
 01/08/2021 - 17:00  19.7°C  19.7°C  1009.7 hPa  71%  9.3 km/h   15.3 km/h  20%  0.28 mm/h  16.1km  98%  Overcast 
 01/08/2021 - 18:00  19.6°C  19.6°C  1009.5 hPa  72%  9.0 km/h   15.7 km/h  23%  0.39 mm/h  16.1km  97%  Overcast 
 01/08/2021 - 19:00  19.0°C  19.0°C  1009.5 hPa  75%  8.6 km/h   15.8 km/h  25%  0.39 mm/h  16.1km  95%  Overcast 
 01/08/2021 - 20:00  18.3°C  18.3°C  1009.6 hPa  81%  9.4 km/h   17.0 km/h  32%  0.48 mm/h  16.1km  99%  Possible Light Rain 
 01/08/2021 - 21:00  17.8°C  17.8°C  1009.7 hPa  83%  9.7 km/h   17.0 km/h  33%  0.37 mm/h  16.1km  97%  Possible Light Rain 
 01/08/2021 - 22:00  17.2°C  17.2°C  1009.7 hPa  84%  9.6 km/h   15.9 km/h  29%  0.21 mm/h  16.1km  94%  Possible Drizzle 
 01/08/2021 - 23:00  16.9°C  16.9°C  1009.6 hPa  85%  9.7 km/h   15.6 km/h  26%  0.13 mm/h  16.1km  92%  Possible Drizzle 
 02/08/2021 - 00:00  16.6°C  16.6°C  1009.4 hPa  86%  8.7 km/h   14.3 km/h  25%  0.13 mm/h  16.1km  91%  Overcast 
 02/08/2021 - 01:00  16.3°C  16.3°C  1009.2 hPa  86%  7.7 km/h   12.5 km/h  28%  0.18 mm/h  16.1km  92%  Possible Drizzle 
 02/08/2021 - 02:00  16.1°C  16.1°C  1009.6 hPa  87%  7.4 km/h   15.0 km/h  40%  0.33 mm/h  16.1km  97%  Possible Light Rain 
 02/08/2021 - 03:00  15.7°C  15.7°C  1009.6 hPa  88%  7.3 km/h   14.8 km/h  41%  0.31 mm/h  16.1km  92%  Possible Light Rain 
 02/08/2021 - 04:00  15.1°C  15.1°C  1009.6 hPa  90%  7.6 km/h   15.4 km/h  37%  0.22 mm/h  16.1km  86%  Possible Drizzle 
 02/08/2021 - 05:00  14.7°C  14.7°C  1009.8 hPa  91%  8.1 km/h   16.1 km/h  32%  0.17 mm/h  16.1km  75%  Possible Drizzle 
 02/08/2021 - 06:00  14.3°C  14.3°C  1010.3 hPa  91%  9.0 km/h   15.8 km/h  30%  0.16 mm/h  16.1km  81%  Possible Drizzle 
 02/08/2021 - 07:00  14.6°C  14.6°C  1011.0 hPa  89%  10.5 km/h   19.4 km/h  28%  0.19 mm/h  16.1km  66%  Possible Drizzle 
 02/08/2021 - 08:00  15.7°C  15.7°C  1011.6 hPa  82%  10.6 km/h   13.1 km/h  15%  0.18 mm/h  16.1km  60%  Mostly Cloudy 
 02/08/2021 - 09:00  17.2°C  17.2°C  1012.0 hPa  76%  10.3 km/h   11.6 km/h  6%  0.11 mm/h  16.1km  53%  Partly Cloudy 
 02/08/2021 - 10:00  18.8°C  18.8°C  1012.6 hPa  71%  9.9 km/h   11.4 km/h  3%  0.04 mm/h  16.1km  36%  Partly Cloudy 
 02/08/2021 - 11:00  20.1°C  20.1°C  1012.7 hPa  66%  9.9 km/h   12.0 km/h  2%  0.01 mm/h  16.1km  32%  Partly Cloudy 
 02/08/2021 - 12:00  21.3°C  21.3°C  1012.7 hPa  59%  10.6 km/h   15.8 km/h  0%  --  16.1km  48%  Partly Cloudy 
 02/08/2021 - 13:00  22.4°C  22.4°C  1012.5 hPa  53%  12.1 km/h   19.3 km/h  0%  --  16.1km  44%  Partly Cloudy 
 02/08/2021 - 14:00  23.3°C  23.3°C  1012.6 hPa  48%  12.2 km/h   17.3 km/h  1%  0.01 mm/h  16.1km  47%  Partly Cloudy 
 02/08/2021 - 15:00  24.1°C  24.1°C  1012.6 hPa  45%  13.8 km/h   17.9 km/h  0%  --  16.1km  46%  Partly Cloudy 
 02/08/2021 - 16:00  24.7°C  24.7°C  1012.9 hPa  43%  15.8 km/h   18.7 km/h  0%  --  16.1km  41%  Partly Cloudy 
 02/08/2021 - 17:00  24.5°C  24.5°C  1012.9 hPa  44%  16.3 km/h   18.7 km/h  0%  --  16.1km  39%  Partly Cloudy 
 02/08/2021 - 18:00  23.7°C  23.7°C  1013.2 hPa  48%  15.3 km/h   18.5 km/h  0%  --  16.1km  30%  Clear 
 02/08/2021 - 19:00  22.2°C  22.2°C  1013.5 hPa  54%  13.5 km/h   19.5 km/h  0%  --  16.1km  28%  Clear 
 02/08/2021 - 20:00  20.9°C  20.9°C  1013.9 hPa  62%  12.3 km/h   24.4 km/h  0%  --  16.1km  15%  Clear 
 02/08/2021 - 21:00  19.6°C  19.6°C  1014.5 hPa  66%  11.4 km/h   24.1 km/h  0%  --  16.1km  10%  Clear 
 02/08/2021 - 22:00  18.7°C  18.7°C  1015.0 hPa  68%  10.7 km/h   19.8 km/h  0%  --  16.1km  11%  Clear 
 02/08/2021 - 23:00  17.8°C  17.8°C  1015.4 hPa  70%  10.0 km/h   15.5 km/h  0%  --  16.1km  11%  Clear 
 03/08/2021 - 00:00  17.3°C  17.3°C  1015.6 hPa  71%  9.7 km/h   15.3 km/h  0%  --  16.1km  12%  Clear 
 03/08/2021 - 01:00  16.7°C  16.7°C  1015.9 hPa  73%  10.9 km/h   21.1 km/h  0%  --  16.1km  15%  Clear 
 03/08/2021 - 02:00  15.6°C  15.6°C  1016.0 hPa  74%  10.7 km/h   23.3 km/h  0%  --  16.1km  14%  Clear 

 

Past weather and reports

Past weatherFind in this section the past weather conditions, weather archive, graphics, reports and statistics.

Current conditions

Current weather condition for MontrealAll you need to know about the current weather conditions for Montreal. Weather data is updated every 10 minutes.

Weather forecast

Current Montreal weatherSince 2004, celinium.com website has provided accurate weather forecast for Montreal's island.